Delta, Utah
Current Conditions -  °F | °C
As of 2:35 AM on Thursday 23 Oct 2014 (Local Time) from KDTA Reporting Station
Clear Clear  
Wind Chill: 35°   Ceiling: Unl
Heat Index: 40°   Visibility: 10mi
Dew Point: 30°   Wind: 6mph
Humidity: 68%   Direction: 110°ESE
Pressure: 30.18"   Gusts: NA
Location:  39.35°N, 112.58°W
Report Text: KDTA 230835Z AUTO 11005KT 10SM CLR 04/M01 A3018 RMK AO1 T00421012
Loading
Personal Weather Stations






























Interactive Weather Map
Tropical Storm Tracking
New forecast layout! Learn more

10-Day Weather Forecast

Advertisements
Track Severe Weather on mobile